sensor_id;sensor_type;location;lat;lon;timestamp;pressure;altitude;pressure_sealevel;temperature;humidity
79203;BME280;68630;42.748;23.278;2023-07-28T00:01:09;95583.09;;;13.88;60.24
79203;BME280;68630;42.748;23.278;2023-07-28T00:03:36;95573.76;;;13.92;59.88
79203;BME280;68630;42.748;23.278;2023-07-28T00:06:03;95582.59;;;13.75;60.56
79203;BME280;68630;42.748;23.278;2023-07-28T00:08:30;95585.19;;;13.57;61.11
79203;BME280;68630;42.748;23.278;2023-07-28T00:10:57;95577.57;;;13.62;60.94
79203;BME280;68630;42.748;23.278;2023-07-28T00:13:25;95586.59;;;13.47;61.36
79203;BME280;68630;42.748;23.278;2023-07-28T00:15:51;95580.34;;;13.56;61.02
79203;BME280;68630;42.748;23.278;2023-07-28T00:18:19;95584.25;;;13.48;61.34
79203;BME280;68630;42.748;23.278;2023-07-28T00:20:47;95581.92;;;13.35;61.73
79203;BME280;68630;42.748;23.278;2023-07-28T00:23:15;95582.15;;;13.18;62.41
79203;BME280;68630;42.748;23.278;2023-07-28T00:25:42;95576.83;;;13.42;61.58
79203;BME280;68630;42.748;23.278;2023-07-28T00:28:09;95572.06;;;13.36;61.71
79203;BME280;68630;42.748;23.278;2023-07-28T00:30:36;95564.58;;;13.29;62.00
79203;BME280;68630;42.748;23.278;2023-07-28T00:33:03;95576.11;;;13.16;62.39
79203;BME280;68630;42.748;23.278;2023-07-28T00:35:31;95567.69;;;13.11;62.60
79203;BME280;68630;42.748;23.278;2023-07-28T00:37:59;95570.42;;;13.05;62.84
79203;BME280;68630;42.748;23.278;2023-07-28T00:40:26;95573.81;;;13.07;62.87
79203;BME280;68630;42.748;23.278;2023-07-28T00:42:54;95575.09;;;12.93;63.52
79203;BME280;68630;42.748;23.278;2023-07-28T00:45:22;95576.91;;;13.03;63.06
79203;BME280;68630;42.748;23.278;2023-07-28T00:47:50;95578.17;;;12.99;63.27
79203;BME280;68630;42.748;23.278;2023-07-28T00:50:17;95571.63;;;12.64;64.42
79203;BME280;68630;42.748;23.278;2023-07-28T00:52:45;95567.34;;;12.67;64.03
79203;BME280;68630;42.748;23.278;2023-07-28T00:55:12;95583.05;;;12.89;63.55
79203;BME280;68630;42.748;23.278;2023-07-28T00:57:40;95580.24;;;12.81;63.86
79203;BME280;68630;42.748;23.278;2023-07-28T01:00:08;95580.55;;;12.68;64.40
79203;BME280;68630;42.748;23.278;2023-07-28T01:02:37;95580.93;;;12.93;63.53
79203;BME280;68630;42.748;23.278;2023-07-28T01:05:05;95580.61;;;12.72;64.15
79203;BME280;68630;42.748;23.278;2023-07-28T01:10:24;95569.01;;;12.68;64.17
79203;BME280;68630;42.748;23.278;2023-07-28T01:12:51;95569.59;;;12.71;64.34
79203;BME280;68630;42.748;23.278;2023-07-28T01:15:19;95577.75;;;12.70;64.49
79203;BME280;68630;42.748;23.278;2023-07-28T01:17:46;95577.48;;;12.34;65.57
79203;BME280;68630;42.748;23.278;2023-07-28T01:20:14;95576.90;;;12.21;66.22
79203;BME280;68630;42.748;23.278;2023-07-28T01:28:30;95580.33;;;12.27;65.96
79203;BME280;68630;42.748;23.278;2023-07-28T01:31:01;95576.93;;;11.95;67.06
79203;BME280;68630;42.748;23.278;2023-07-28T01:33:29;95574.06;;;11.87;67.49
79203;BME280;68630;42.748;23.278;2023-07-28T01:35:56;95579.66;;;11.74;67.86
79203;BME280;68630;42.748;23.278;2023-07-28T01:38:26;95578.19;;;11.51;68.76
79203;BME280;68630;42.748;23.278;2023-07-28T01:40:53;95569.20;;;11.77;67.77
79203;BME280;68630;42.748;23.278;2023-07-28T01:43:21;95573.16;;;11.98;66.92
79203;BME280;68630;42.748;23.278;2023-07-28T01:45:48;95577.93;;;11.94;66.84
79203;BME280;68630;42.748;23.278;2023-07-28T01:48:16;95576.59;;;11.89;67.04
79203;BME280;68630;42.748;23.278;2023-07-28T01:50:43;95584.73;;;11.93;66.68
79203;BME280;68630;42.748;23.278;2023-07-28T01:53:11;95583.30;;;11.73;67.31
79203;BME280;68630;42.748;23.278;2023-07-28T01:55:38;95582.33;;;11.74;67.33
79203;BME280;68630;42.748;23.278;2023-07-28T01:58:05;95588.94;;;11.80;67.20
79203;BME280;68630;42.748;23.278;2023-07-28T02:00:33;95590.30;;;11.90;66.87
79203;BME280;68630;42.748;23.278;2023-07-28T02:03:00;95591.73;;;11.94;66.68
79203;BME280;68630;42.748;23.278;2023-07-28T02:05:29;95592.86;;;12.01;66.64
79203;BME280;68630;42.748;23.278;2023-07-28T02:07:57;95582.63;;;12.06;66.23
79203;BME280;68630;42.748;23.278;2023-07-28T02:10:29;95584.53;;;11.85;67.17
79203;BME280;68630;42.748;23.278;2023-07-28T02:12:55;95577.87;;;11.85;67.03
79203;BME280;68630;42.748;23.278;2023-07-28T02:15:23;95580.23;;;11.93;66.75
79203;BME280;68630;42.748;23.278;2023-07-28T02:17:50;95581.23;;;12.02;66.57
79203;BME280;68630;42.748;23.278;2023-07-28T02:20:18;95564.52;;;12.00;66.44
79203;BME280;68630;42.748;23.278;2023-07-28T02:22:45;95585.95;;;12.14;66.28
79203;BME280;68630;42.748;23.278;2023-07-28T02:25:13;95586.06;;;11.77;67.66
79203;BME280;68630;42.748;23.278;2023-07-28T02:27:40;95594.80;;;11.64;68.24
79203;BME280;68630;42.748;23.278;2023-07-28T02:30:07;95589.90;;;11.69;67.98
79203;BME280;68630;42.748;23.278;2023-07-28T02:32:35;95596.27;;;11.88;66.61
79203;BME280;68630;42.748;23.278;2023-07-28T02:35:03;95597.44;;;11.95;66.63
79203;BME280;68630;42.748;23.278;2023-07-28T02:37:30;95603.50;;;12.07;65.45
79203;BME280;68630;42.748;23.278;2023-07-28T02:39:58;95585.55;;;12.18;65.17
79203;BME280;68630;42.748;23.278;2023-07-28T02:42:25;95588.21;;;12.18;65.87
79203;BME280;68630;42.748;23.278;2023-07-28T02:44:53;95593.32;;;12.16;66.00
79203;BME280;68630;42.748;23.278;2023-07-28T02:47:20;95589.59;;;12.13;65.83
79203;BME280;68630;42.748;23.278;2023-07-28T02:49:48;95585.55;;;12.18;64.90
79203;BME280;68630;42.748;23.278;2023-07-28T02:52:15;95583.73;;;12.29;64.80
79203;BME280;68630;42.748;23.278;2023-07-28T02:54:43;95584.07;;;12.20;65.24
79203;BME280;68630;42.748;23.278;2023-07-28T02:57:09;95581.52;;;12.09;65.73
79203;BME280;68630;42.748;23.278;2023-07-28T02:59:37;95585.36;;;12.01;65.93
79203;BME280;68630;42.748;23.278;2023-07-28T03:02:03;95587.27;;;12.04;65.55
79203;BME280;68630;42.748;23.278;2023-07-28T03:04:31;95589.09;;;12.04;65.53
79203;BME280;68630;42.748;23.278;2023-07-28T03:06:58;95591.03;;;11.92;65.74
79203;BME280;68630;42.748;23.278;2023-07-28T03:09:26;95597.10;;;11.88;65.85
79203;BME280;68630;42.748;23.278;2023-07-28T03:11:54;95593.34;;;11.91;65.91
79203;BME280;68630;42.748;23.278;2023-07-28T03:14:22;95604.00;;;11.91;65.95
79203;BME280;68630;42.748;23.278;2023-07-28T03:16:49;95606.08;;;11.93;65.76
79203;BME280;68630;42.748;23.278;2023-07-28T03:19:17;95603.47;;;11.97;65.64
79203;BME280;68630;42.748;23.278;2023-07-28T03:21:44;95600.67;;;11.98;65.65
79203;BME280;68630;42.748;23.278;2023-07-28T03:24:11;95604.63;;;11.64;66.80
79203;BME280;68630;42.748;23.278;2023-07-28T03:26:38;95606.42;;;11.63;66.96
79203;BME280;68630;42.748;23.278;2023-07-28T03:29:06;95605.70;;;12.17;65.42
79203;BME280;68630;42.748;23.278;2023-07-28T03:31:33;95607.92;;;13.00;62.62
79203;BME280;68630;42.748;23.278;2023-07-28T03:34:03;95600.31;;;13.76;60.30
79203;BME280;68630;42.748;23.278;2023-07-28T03:36:31;95605.46;;;14.47;58.07
79203;BME280;68630;42.748;23.278;2023-07-28T03:38:57;95600.59;;;15.00;56.33
79203;BME280;68630;42.748;23.278;2023-07-28T03:41:25;95609.80;;;15.76;54.01
79203;BME280;68630;42.748;23.278;2023-07-28T03:43:53;95612.16;;;16.22;52.78
79203;BME280;68630;42.748;23.278;2023-07-28T03:46:21;95618.37;;;16.90;51.03
79203;BME280;68630;42.748;23.278;2023-07-28T03:48:48;95619.17;;;17.35;49.56
79203;BME280;68630;42.748;23.278;2023-07-28T03:51:15;95617.56;;;18.34;46.79
79203;BME280;68630;42.748;23.278;2023-07-28T03:53:42;95615.86;;;18.37;46.27
79203;BME280;68630;42.748;23.278;2023-07-28T03:56:09;95617.39;;;18.90;45.02
79203;BME280;68630;42.748;23.278;2023-07-28T03:58:36;95619.56;;;19.14;44.05
79203;BME280;68630;42.748;23.278;2023-07-28T04:01:03;95617.71;;;18.64;44.91
79203;BME280;68630;42.748;23.278;2023-07-28T04:03:32;95624.36;;;18.76;44.82
79203;BME280;68630;42.748;23.278;2023-07-28T04:05:59;95622.70;;;18.12;45.78
79203;BME280;68630;42.748;23.278;2023-07-28T04:08:26;95624.58;;;17.31;48.17
79203;BME280;68630;42.748;23.278;2023-07-28T04:10:53;95618.73;;;17.92;46.90
79203;BME280;68630;42.748;23.278;2023-07-28T04:13:21;95615.06;;;18.56;45.43
79203;BME280;68630;42.748;23.278;2023-07-28T04:15:47;95620.03;;;18.98;44.25
79203;BME280;68630;42.748;23.278;2023-07-28T04:18:15;95610.47;;;18.02;46.08
79203;BME280;68630;42.748;23.278;2023-07-28T04:20:44;95619.70;;;18.43;45.37
79203;BME280;68630;42.748;23.278;2023-07-28T04:23:12;95619.50;;;19.03;44.17
79203;BME280;68630;42.748;23.278;2023-07-28T04:25:39;95622.60;;;18.92;44.22
79203;BME280;68630;42.748;23.278;2023-07-28T04:28:06;95633.25;;;19.88;42.66
79203;BME280;68630;42.748;23.278;2023-07-28T04:30:33;95623.95;;;20.16;41.90
79203;BME280;68630;42.748;23.278;2023-07-28T04:33:01;95625.56;;;20.88;40.68
79203;BME280;68630;42.748;23.278;2023-07-28T04:35:30;95622.67;;;22.06;38.98
79203;BME280;68630;42.748;23.278;2023-07-28T04:37:57;95619.68;;;22.78;37.18
79203;BME280;68630;42.748;23.278;2023-07-28T04:40:25;95623.36;;;23.52;35.98
79203;BME280;68630;42.748;23.278;2023-07-28T04:42:52;95622.50;;;23.25;35.94
79203;BME280;68630;42.748;23.278;2023-07-28T04:45:20;95627.88;;;23.82;34.99
79203;BME280;68630;42.748;23.278;2023-07-28T04:47:47;95624.52;;;23.67;35.42
79203;BME280;68630;42.748;23.278;2023-07-28T04:50:15;95624.52;;;23.67;35.42
79203;BME280;68630;42.748;23.278;2023-07-28T04:52:42;95630.73;;;24.57;34.10
79203;BME280;68630;42.748;23.278;2023-07-28T04:55:10;95630.73;;;24.57;34.10
79203;BME280;68630;42.748;23.278;2023-07-28T04:57:38;95623.31;;;24.48;34.25
79203;BME280;68630;42.748;23.278;2023-07-28T05:00:06;95623.84;;;24.77;33.88
79203;BME280;68630;42.748;23.278;2023-07-28T05:02:35;95623.59;;;23.84;35.32
79203;BME280;68630;42.748;23.278;2023-07-28T05:05:02;95613.44;;;23.55;35.66
79203;BME280;68630;42.748;23.278;2023-07-28T05:07:30;95617.62;;;23.31;36.06
79203;BME280;68630;42.748;23.278;2023-07-28T05:09:57;95626.18;;;24.37;34.74
79203;BME280;68630;42.748;23.278;2023-07-28T05:12:25;95626.48;;;24.31;34.78
79203;BME280;68630;42.748;23.278;2023-07-28T05:14:52;95613.39;;;25.44;33.17
79203;BME280;68630;42.748;23.278;2023-07-28T05:17:20;95620.34;;;25.40;32.69
79203;BME280;68630;42.748;23.278;2023-07-28T05:19:49;95618.30;;;25.45;33.15
79203;BME280;68630;42.748;23.278;2023-07-28T05:22:17;95623.94;;;26.00;31.49
79203;BME280;68630;42.748;23.278;2023-07-28T05:24:45;95627.42;;;25.82;32.12
79203;BME280;68630;42.748;23.278;2023-07-28T05:27:12;95626.41;;;26.64;30.71
79203;BME280;68630;42.748;23.278;2023-07-28T05:29:40;95623.09;;;27.01;30.61
79203;BME280;68630;42.748;23.278;2023-07-28T05:32:08;95613.39;;;26.96;30.54
79203;BME280;68630;42.748;23.278;2023-07-28T05:34:35;95613.19;;;27.40;29.58
79203;BME280;68630;42.748;23.278;2023-07-28T05:37:03;95618.30;;;27.57;29.57
79203;BME280;68630;42.748;23.278;2023-07-28T05:39:30;95612.44;;;27.54;29.59
79203;BME280;68630;42.748;23.278;2023-07-28T05:41:58;95614.03;;;28.32;28.49
79203;BME280;68630;42.748;23.278;2023-07-28T05:44:25;95614.67;;;28.61;28.18
79203;BME280;68630;42.748;23.278;2023-07-28T05:46:53;95615.21;;;28.48;28.41
79203;BME280;68630;42.748;23.278;2023-07-28T05:49:21;95609.55;;;28.79;27.60
79203;BME280;68630;42.748;23.278;2023-07-28T05:51:48;95610.09;;;28.64;27.85
79203;BME280;68630;42.748;23.278;2023-07-28T05:54:16;95603.00;;;28.53;27.93
79203;BME280;68630;42.748;23.278;2023-07-28T05:56:43;95599.06;;;29.30;26.86
79203;BME280;68630;42.748;23.278;2023-07-28T05:59:11;95601.45;;;28.98;27.52
79203;BME280;68630;42.748;23.278;2023-07-28T06:01:38;95596.02;;;29.29;27.11
79203;BME280;68630;42.748;23.278;2023-07-28T06:04:06;95592.38;;;29.58;27.30
79203;BME280;68630;42.748;23.278;2023-07-28T06:06:33;95589.17;;;29.15;27.29
79203;BME280;68630;42.748;23.278;2023-07-28T06:09:01;95596.27;;;29.13;27.54
79203;BME280;68630;42.748;23.278;2023-07-28T06:11:28;95595.80;;;29.48;26.69
79203;BME280;68630;42.748;23.278;2023-07-28T06:13:56;95586.00;;;29.21;27.01
79203;BME280;68630;42.748;23.278;2023-07-28T06:16:24;95591.09;;;28.86;27.36
79203;BME280;68630;42.748;23.278;2023-07-28T06:18:52;95589.36;;;29.74;26.44
79203;BME280;68630;42.748;23.278;2023-07-28T06:21:19;95584.38;;;29.70;26.16
79203;BME280;68630;42.748;23.278;2023-07-28T06:23:47;95582.62;;;29.64;26.26
79203;BME280;68630;42.748;23.278;2023-07-28T06:26:14;95584.66;;;29.88;26.10
79203;BME280;68630;42.748;23.278;2023-07-28T06:28:42;95587.34;;;30.59;25.12
79203;BME280;68630;42.748;23.278;2023-07-28T06:31:09;95582.48;;;30.44;24.87
79203;BME280;68630;42.748;23.278;2023-07-28T06:33:37;95593.30;;;30.34;25.00
79203;BME280;68630;42.748;23.278;2023-07-28T06:36:05;95586.59;;;31.70;23.28
79203;BME280;68630;42.748;23.278;2023-07-28T06:38:32;95575.50;;;31.03;24.87
79203;BME280;68630;42.748;23.278;2023-07-28T06:41:00;95585.93;;;32.27;23.16
79203;BME280;68630;42.748;23.278;2023-07-28T06:43:28;95581.01;;;30.00;25.51
79203;BME280;68630;42.748;23.278;2023-07-28T06:45:55;95582.37;;;29.66;25.89
79203;BME280;68630;42.748;23.278;2023-07-28T06:48:23;95580.70;;;31.56;23.15
79203;BME280;68630;42.748;23.278;2023-07-28T06:50:50;95583.06;;;32.60;22.43
79203;BME280;68630;42.748;23.278;2023-07-28T06:53:18;95584.69;;;32.53;22.75
79203;BME280;68630;42.748;23.278;2023-07-28T06:55:45;95584.39;;;32.50;22.75
79203;BME280;68630;42.748;23.278;2023-07-28T06:58:13;95582.09;;;32.34;22.73
79203;BME280;68630;42.748;23.278;2023-07-28T07:00:40;95585.53;;;33.27;21.92
79203;BME280;68630;42.748;23.278;2023-07-28T07:03:08;95587.49;;;33.42;21.62
79203;BME280;68630;42.748;23.278;2023-07-28T07:05:36;95578.95;;;33.49;21.38
79203;BME280;68630;42.748;23.278;2023-07-28T07:08:03;95581.75;;;33.74;21.71
79203;BME280;68630;42.748;23.278;2023-07-28T07:10:31;95576.11;;;31.67;23.72
79203;BME280;68630;42.748;23.278;2023-07-28T07:12:59;95568.68;;;31.37;23.77
79203;BME280;68630;42.748;23.278;2023-07-28T07:15:26;95568.97;;;31.66;23.91
79203;BME280;68630;42.748;23.278;2023-07-28T07:17:54;95576.20;;;33.98;21.40
79203;BME280;68630;42.748;23.278;2023-07-28T07:20:22;95574.52;;;34.25;21.45
79203;BME280;68630;42.748;23.278;2023-07-28T07:22:50;95576.48;;;33.99;21.36
79203;BME280;68630;42.748;23.278;2023-07-28T07:25:18;95580.20;;;35.32;20.07
79203;BME280;68630;42.748;23.278;2023-07-28T07:27:45;95581.04;;;34.60;21.10
79203;BME280;68630;42.748;23.278;2023-07-28T07:30:13;95585.57;;;34.25;20.93
79203;BME280;68630;42.748;23.278;2023-07-28T07:32:40;95577.00;;;35.07;20.14
79203;BME280;68630;42.748;23.278;2023-07-28T07:35:08;95584.62;;;35.73;19.73
79203;BME280;68630;42.748;23.278;2023-07-28T07:37:36;95578.31;;;35.65;19.45
79203;BME280;68630;42.748;23.278;2023-07-28T07:40:06;95584.68;;;34.47;20.47
79203;BME280;68630;42.748;23.278;2023-07-28T07:42:47;95581.73;;;33.95;21.20
79203;BME280;68630;42.748;23.278;2023-07-28T07:45:15;95594.61;;;33.22;21.97
79203;BME280;68630;42.748;23.278;2023-07-28T07:47:43;95590.01;;;33.87;21.01
79203;BME280;68630;42.748;23.278;2023-07-28T07:50:11;95584.22;;;33.96;21.20
79203;BME280;68630;42.748;23.278;2023-07-28T07:52:40;95582.81;;;35.92;19.03
79203;BME280;68630;42.748;23.278;2023-07-28T07:55:08;95581.05;;;36.04;19.02
79203;BME280;68630;42.748;23.278;2023-07-28T07:57:37;95580.84;;;35.58;19.60
79203;BME280;68630;42.748;23.278;2023-07-28T08:00:05;95580.27;;;36.54;18.92
79203;BME280;68630;42.748;23.278;2023-07-28T08:02:33;95582.67;;;35.71;19.94
79203;BME280;68630;42.748;23.278;2023-07-28T08:05:00;95586.47;;;36.70;18.57
79203;BME280;68630;42.748;23.278;2023-07-28T08:07:29;95582.65;;;37.09;18.10
79203;BME280;68630;42.748;23.278;2023-07-28T08:09:56;95579.59;;;37.08;18.37
79203;BME280;68630;42.748;23.278;2023-07-28T08:12:24;95576.99;;;35.91;19.13
79203;BME280;68630;42.748;23.278;2023-07-28T08:14:51;95568.72;;;36.45;19.06
79203;BME280;68630;42.748;23.278;2023-07-28T08:17:18;95570.72;;;36.42;18.67
79203;BME280;68630;42.748;23.278;2023-07-28T08:19:46;95565.73;;;35.43;19.32
79203;BME280;68630;42.748;23.278;2023-07-28T08:22:13;95568.06;;;35.62;19.23
79203;BME280;68630;42.748;23.278;2023-07-28T08:24:41;95563.22;;;36.90;18.21
79203;BME280;68630;42.748;23.278;2023-07-28T08:27:08;95563.52;;;38.00;17.16
79203;BME280;68630;42.748;23.278;2023-07-28T08:29:36;95562.56;;;38.54;16.80
79203;BME280;68630;42.748;23.278;2023-07-28T08:32:03;95565.14;;;38.92;16.81
79203;BME280;68630;42.748;23.278;2023-07-28T08:34:31;95560.61;;;38.25;17.22
79203;BME280;68630;42.748;23.278;2023-07-28T08:36:58;95566.92;;;38.30;17.05
79203;BME280;68630;42.748;23.278;2023-07-28T08:39:26;95563.70;;;38.07;17.67
79203;BME280;68630;42.748;23.278;2023-07-28T08:42:03;95562.47;;;35.75;19.45
79203;BME280;68630;42.748;23.278;2023-07-28T08:44:31;95565.39;;;37.34;17.90
79203;BME280;68630;42.748;23.278;2023-07-28T08:46:59;95559.32;;;37.32;17.96
79203;BME280;68630;42.748;23.278;2023-07-28T08:49:26;95562.84;;;37.19;17.96
79203;BME280;68630;42.748;23.278;2023-07-28T08:51:57;95559.30;;;35.05;20.59
79203;BME280;68630;42.748;23.278;2023-07-28T08:54:24;95550.82;;;35.78;19.64
79203;BME280;68630;42.748;23.278;2023-07-28T08:56:52;95551.09;;;36.84;19.79
79203;BME280;68630;42.748;23.278;2023-07-28T08:59:24;95548.90;;;38.55;17.23
79203;BME280;68630;42.748;23.278;2023-07-28T09:01:54;95543.06;;;37.61;17.92
79203;BME280;68630;42.748;23.278;2023-07-28T09:04:22;95533.48;;;37.53;18.00
79203;BME280;68630;42.748;23.278;2023-07-28T09:06:50;95538.06;;;39.23;16.46
79203;BME280;68630;42.748;23.278;2023-07-28T09:09:23;95532.45;;;40.68;15.27
79203;BME280;68630;42.748;23.278;2023-07-28T09:11:52;95528.67;;;41.65;14.33
79203;BME280;68630;42.748;23.278;2023-07-28T09:14:21;95525.58;;;42.63;13.66
79203;BME280;68630;42.748;23.278;2023-07-28T09:16:52;95522.47;;;41.68;14.17
79203;BME280;68630;42.748;23.278;2023-07-28T09:19:21;95511.10;;;41.38;14.57
79203;BME280;68630;42.748;23.278;2023-07-28T09:22:00;95510.41;;;41.85;14.35
79203;BME280;68630;42.748;23.278;2023-07-28T09:24:34;95503.53;;;41.65;14.53
79203;BME280;68630;42.748;23.278;2023-07-28T09:27:02;95496.76;;;38.06;17.26
79203;BME280;68630;42.748;23.278;2023-07-28T09:29:31;95492.14;;;38.59;16.91
79203;BME280;68630;42.748;23.278;2023-07-28T09:32:05;95484.00;;;38.76;16.76
79203;BME280;68630;42.748;23.278;2023-07-28T09:34:33;95471.16;;;37.62;17.59
79203;BME280;68630;42.748;23.278;2023-07-28T09:37:01;95467.61;;;38.47;16.86
79203;BME280;68630;42.748;23.278;2023-07-28T09:39:29;95458.74;;;39.23;16.08
79203;BME280;68630;42.748;23.278;2023-07-28T09:41:59;95463.41;;;37.92;17.33
79203;BME280;68630;42.748;23.278;2023-07-28T09:44:27;95456.29;;;38.44;16.53
79203;BME280;68630;42.748;23.278;2023-07-28T09:46:56;95455.75;;;37.37;17.62
79203;BME280;68630;42.748;23.278;2023-07-28T09:49:39;95450.78;;;38.55;16.70
79203;BME280;68630;42.748;23.278;2023-07-28T09:52:07;95449.75;;;38.37;16.67
79203;BME280;68630;42.748;23.278;2023-07-28T09:54:39;95444.36;;;37.71;17.38
79203;BME280;68630;42.748;23.278;2023-07-28T09:57:11;95443.57;;;37.68;17.50
79203;BME280;68630;42.748;23.278;2023-07-28T09:59:39;95439.97;;;36.13;18.76
79203;BME280;68630;42.748;23.278;2023-07-28T10:02:08;95439.94;;;34.41;20.18
79203;BME280;68630;42.748;23.278;2023-07-28T10:04:36;95442.52;;;35.85;18.80
79203;BME280;68630;42.748;23.278;2023-07-28T10:07:08;95444.09;;;35.91;20.19
79203;BME280;68630;42.748;23.278;2023-07-28T10:09:36;95431.98;;;37.63;17.92
79203;BME280;68630;42.748;23.278;2023-07-28T10:12:04;95429.50;;;37.78;17.84
79203;BME280;68630;42.748;23.278;2023-07-28T10:14:35;95429.71;;;36.59;18.75
79203;BME280;68630;42.748;23.278;2023-07-28T10:17:06;95427.27;;;36.77;18.85
79203;BME280;68630;42.748;23.278;2023-07-28T10:19:36;95422.84;;;37.11;18.13
79203;BME280;68630;42.748;23.278;2023-07-28T10:22:11;95427.40;;;36.21;19.01
79203;BME280;68630;42.748;23.278;2023-07-28T10:25:03;95423.81;;;36.20;19.24
79203;BME280;68630;42.748;23.278;2023-07-28T10:30:11;95417.78;;;36.59;19.10
79203;BME280;68630;42.748;23.278;2023-07-28T10:32:40;95411.55;;;34.30;21.27
79203;BME280;68630;42.748;23.278;2023-07-28T10:37:46;95405.14;;;33.59;22.44
79203;BME280;68630;42.748;23.278;2023-07-28T10:40:34;95400.52;;;34.22;21.02
79203;BME280;68630;42.748;23.278;2023-07-28T10:43:03;95399.32;;;32.58;23.62
79203;BME280;68630;42.748;23.278;2023-07-28T10:45:33;95404.25;;;31.82;24.37
79203;BME280;68630;42.748;23.278;2023-07-28T10:48:01;95403.41;;;31.74;23.45
79203;BME280;68630;42.748;23.278;2023-07-28T10:50:31;95398.00;;;31.95;23.90
79203;BME280;68630;42.748;23.278;2023-07-28T10:52:59;95385.71;;;31.60;24.54
79203;BME280;68630;42.748;23.278;2023-07-28T10:55:27;95389.25;;;31.52;24.82
79203;BME280;68630;42.748;23.278;2023-07-28T10:57:55;95379.95;;;31.59;25.15
79203;BME280;68630;42.748;23.278;2023-07-28T11:00:24;95378.41;;;30.98;25.07
79203;BME280;68630;42.748;23.278;2023-07-28T11:02:53;95368.10;;;30.51;25.81
79203;BME280;68630;42.748;23.278;2023-07-28T11:05:23;95363.98;;;30.51;26.46
79203;BME280;68630;42.748;23.278;2023-07-28T11:08:01;95366.17;;;30.49;26.06
79203;BME280;68630;42.748;23.278;2023-07-28T11:10:30;95366.45;;;30.28;25.58
79203;BME280;68630;42.748;23.278;2023-07-28T11:13:00;95365.06;;;30.50;25.81
79203;BME280;68630;42.748;23.278;2023-07-28T11:15:28;95359.61;;;30.85;25.15
79203;BME280;68630;42.748;23.278;2023-07-28T11:17:56;95351.04;;;30.81;26.63
79203;BME280;68630;42.748;23.278;2023-07-28T11:20:25;95351.28;;;30.44;27.19
79203;BME280;68630;42.748;23.278;2023-07-28T11:22:59;95342.45;;;30.72;25.88
79203;BME280;68630;42.748;23.278;2023-07-28T11:25:28;95343.05;;;30.74;25.94
79203;BME280;68630;42.748;23.278;2023-07-28T11:27:56;95343.09;;;30.47;26.61
79203;BME280;68630;42.748;23.278;2023-07-28T11:30:24;95343.44;;;30.31;26.74
79203;BME280;68630;42.748;23.278;2023-07-28T11:32:52;95339.45;;;30.17;26.64
79203;BME280;68630;42.748;23.278;2023-07-28T11:35:22;95334.99;;;30.11;25.80
79203;BME280;68630;42.748;23.278;2023-07-28T11:37:51;95333.07;;;29.84;26.83
79203;BME280;68630;42.748;23.278;2023-07-28T11:40:23;95321.46;;;30.01;25.91
79203;BME280;68630;42.748;23.278;2023-07-28T11:42:55;95328.17;;;30.13;24.99
79203;BME280;68630;42.748;23.278;2023-07-28T11:45:23;95323.32;;;29.74;25.56
79203;BME280;68630;42.748;23.278;2023-07-28T11:48:03;95323.64;;;29.99;26.44
79203;BME280;68630;42.748;23.278;2023-07-28T11:50:40;95315.98;;;29.77;27.08
79203;BME280;68630;42.748;23.278;2023-07-28T11:53:08;95319.23;;;29.98;27.25
79203;BME280;68630;42.748;23.278;2023-07-28T11:55:38;95318.54;;;30.35;27.06
79203;BME280;68630;42.748;23.278;2023-07-28T11:58:07;95308.50;;;29.50;26.13
79203;BME280;68630;42.748;23.278;2023-07-28T12:00:37;95319.09;;;29.66;26.50
79203;BME280;68630;42.748;23.278;2023-07-28T12:03:13;95313.37;;;29.90;27.77
79203;BME280;68630;42.748;23.278;2023-07-28T12:08:11;95310.22;;;29.78;26.83
79203;BME280;68630;42.748;23.278;2023-07-28T12:10:53;95300.83;;;29.96;26.97
79203;BME280;68630;42.748;23.278;2023-07-28T12:13:09;95302.89;;;29.84;26.66
79203;BME280;68630;42.748;23.278;2023-07-28T12:15:41;95297.66;;;29.82;26.46
79203;BME280;68630;42.748;23.278;2023-07-28T12:18:16;95294.67;;;29.84;26.49
79203;BME280;68630;42.748;23.278;2023-07-28T12:20:46;95294.06;;;29.79;26.63
79203;BME280;68630;42.748;23.278;2023-07-28T12:23:22;95288.35;;;29.61;28.15
79203;BME280;68630;42.748;23.278;2023-07-28T12:25:50;95282.83;;;29.81;26.46
79203;BME280;68630;42.748;23.278;2023-07-28T12:28:19;95283.09;;;30.06;26.81
79203;BME280;68630;42.748;23.278;2023-07-28T12:30:47;95278.69;;;30.05;25.98
79203;BME280;68630;42.748;23.278;2023-07-28T12:33:16;95278.31;;;30.24;25.51
79203;BME280;68630;42.748;23.278;2023-07-28T12:35:44;95272.77;;;30.16;26.01
79203;BME280;68630;42.748;23.278;2023-07-28T12:38:12;95269.29;;;29.74;26.91
79203;BME280;68630;42.748;23.278;2023-07-28T12:40:39;95264.20;;;29.61;26.64
79203;BME280;68630;42.748;23.278;2023-07-28T12:43:07;95268.75;;;29.53;27.19
79203;BME280;68630;42.748;23.278;2023-07-28T12:45:34;95260.45;;;29.45;27.10
79203;BME280;68630;42.748;23.278;2023-07-28T12:48:02;95261.95;;;29.55;27.54
79203;BME280;68630;42.748;23.278;2023-07-28T12:50:30;95252.30;;;29.50;26.93
79203;BME280;68630;42.748;23.278;2023-07-28T12:52:57;95245.36;;;29.67;27.60
79203;BME280;68630;42.748;23.278;2023-07-28T12:55:24;95245.03;;;29.85;27.35
79203;BME280;68630;42.748;23.278;2023-07-28T12:57:53;95249.52;;;29.94;27.66
79203;BME280;68630;42.748;23.278;2023-07-28T13:00:21;95241.98;;;30.12;26.68
79203;BME280;68630;42.748;23.278;2023-07-28T13:02:48;95244.55;;;29.94;26.78
79203;BME280;68630;42.748;23.278;2023-07-28T13:05:16;95241.89;;;30.01;27.04
79203;BME280;68630;42.748;23.278;2023-07-28T13:07:44;95235.13;;;30.14;26.91
79203;BME280;68630;42.748;23.278;2023-07-28T13:10:11;95237.48;;;30.00;26.77
79203;BME280;68630;42.748;23.278;2023-07-28T13:12:39;95230.16;;;30.09;26.16